Time;durP1;ratioP1;P1;durP2;ratioP2;P2;SDS_P1;SDS_P2;PMS_P1;PMS_P2;Temp;Humidity;BMP_temperature;BMP_pressure;BME280_temperature;BME280_humidity;BME280_pressure;Samples;Min_cycle;Max_cycle;Signal;HPM_P1;HPM_P2
2022/09/16 00:02:21;;;;;;;2.25;1.50;;;18.80;99.90;;;;;;5049857;28;20049;-77
2022/09/16 00:04:47;;;;;;;2.25;1.30;;;18.80;99.90;;;;;;5036414;28;20116;-78
2022/09/16 00:07:15;;;;;;;2.70;1.42;;;18.80;99.90;;;;;;5035185;28;20682;-78
2022/09/16 00:09:41;;;;;;;6.75;1.33;;;18.80;99.90;;;;;;5031274;28;20017;-78
2022/09/16 00:12:07;;;;;;;2.58;1.30;;;18.80;99.90;;;;;;5035847;28;20028;-78
2022/09/16 00:14:33;;;;;;;1.60;1.23;;;18.80;99.90;;;;;;5051970;28;20057;-77
2022/09/16 00:16:59;;;;;;;1.15;0.93;;;18.80;99.90;;;;;;5037023;28;20121;-78
2022/09/16 00:19:24;;;;;;;2.97;1.60;;;18.70;99.90;;;;;;5052215;28;20036;-76
2022/09/16 00:21:50;;;;;;;5.75;1.20;;;18.80;99.90;;;;;;5033201;28;20119;-77
2022/09/16 00:24:16;;;;;;;3.53;1.27;;;18.70;99.90;;;;;;5034172;28;20496;-78
2022/09/16 00:26:42;;;;;;;1.55;1.27;;;18.70;99.90;;;;;;5035622;28;20114;-78
2022/09/16 00:29:08;;;;;;;1.02;0.82;;;18.70;99.90;;;;;;5036102;28;20021;-78
2022/09/16 00:31:34;;;;;;;1.17;1.02;;;18.70;99.90;;;;;;5004856;28;20056;-78
2022/09/16 00:34:01;;;;;;;4.30;1.40;;;18.70;99.90;;;;;;5046485;28;20029;-76
2022/09/16 00:36:27;;;;;;;1.52;1.10;;;18.70;99.90;;;;;;5051969;28;20112;-78
2022/09/16 00:38:53;;;;;;;3.15;1.20;;;18.70;99.90;;;;;;5033761;28;20090;-78
2022/09/16 00:41:31;;;;;;;3.08;1.10;;;18.70;99.90;;;;;;5031681;28;20401;-78
2022/09/16 00:44:00;;;;;;;5.60;1.48;;;18.70;99.90;;;;;;5034658;28;20037;-78
2022/09/16 00:46:39;;;;;;;1.88;1.20;;;18.70;99.90;;;;;;5031763;28;20032;-74
2022/09/16 00:49:29;;;;;;;3.08;1.23;;;18.70;99.90;;;;;;5031917;28;20029;-78
2022/09/16 00:52:02;;;;;;;2.50;1.00;;;18.70;99.90;;;;;;5050809;28;20033;-74
2022/09/16 00:54:29;;;;;;;2.55;1.25;;;18.60;99.90;;;;;;5039268;28;20043;-78
2022/09/16 00:56:58;;;;;;;2.42;1.42;;;18.60;99.90;;;;;;5035081;28;20029;-77
2022/09/16 00:59:27;;;;;;;1.75;1.00;;;18.60;99.90;;;;;;5028183;28;20066;-75
2022/09/16 01:01:55;;;;;;;2.60;0.98;;;18.60;99.90;;;;;;5032390;28;20059;-78
2022/09/16 01:04:28;;;;;;;1.65;0.98;;;18.60;99.90;;;;;;5029705;28;20029;-74
2022/09/16 01:06:54;;;;;;;2.80;1.03;;;18.60;99.90;;;;;;5051971;28;20033;-78
2022/09/16 01:09:22;;;;;;;5.40;1.00;;;18.60;99.90;;;;;;5051817;28;20044;-78
2022/09/16 01:11:49;;;;;;;4.53;1.15;;;18.60;99.90;;;;;;5052894;28;20029;-79
2022/09/16 01:17:14;;;;;;;2.35;0.80;;;18.60;99.90;;;;;;5055973;28;20503;-78
2022/09/16 01:19:56;;;;;;;2.15;0.90;;;18.60;99.90;;;;;;5031634;28;20052;-78
2022/09/16 01:22:24;;;;;;;1.77;1.00;;;18.60;99.90;;;;;;5054560;28;20049;-78
2022/09/16 01:24:53;;;;;;;2.45;1.20;;;18.60;99.90;;;;;;5034950;28;20108;-77
2022/09/16 01:27:31;;;;;;;2.33;1.20;;;18.60;99.90;;;;;;5033643;28;20044;-77
2022/09/16 01:30:13;;;;;;;2.55;1.25;;;18.60;99.90;;;;;;5031102;28;20132;-78
2022/09/16 01:32:54;;;;;;;4.40;1.40;;;18.60;99.90;;;;;;5027399;28;20449;-79
2022/09/16 01:35:34;;;;;;;2.45;1.08;;;18.60;99.90;;;;;;5034262;28;20032;-78
2022/09/16 01:38:15;;;;;;;2.88;1.13;;;18.50;99.90;;;;;;5043002;28;20420;-77
2022/09/16 01:41:02;;;;;;;2.35;1.50;;;18.50;99.90;;;;;;5049097;28;20025;-77
2022/09/16 01:43:39;;;;;;;2.00;0.82;;;18.50;99.90;;;;;;5050909;28;20025;-76
2022/09/16 01:46:29;;;;;;;3.47;1.42;;;18.50;99.90;;;;;;5031323;28;20296;-77
2022/09/16 01:49:06;;;;;;;3.22;1.10;;;18.60;99.90;;;;;;5032957;28;20159;-76
2022/09/16 01:51:43;;;;;;;4.43;1.08;;;18.50;99.90;;;;;;5033075;28;20044;-76
2022/09/16 01:54:16;;;;;;;1.98;0.90;;;18.50;99.90;;;;;;5033534;28;20491;-76
2022/09/16 01:57:03;;;;;;;2.47;0.95;;;18.50;99.90;;;;;;5025846;28;20032;-76
2022/09/16 01:59:56;;;;;;;10.20;1.10;;;18.50;99.90;;;;;;5024966;28;20052;-77
2022/09/16 02:02:40;;;;;;;3.42;1.27;;;18.50;99.90;;;;;;5029680;28;20090;-77
2022/09/16 02:05:13;;;;;;;1.63;1.13;;;18.50;99.90;;;;;;5040251;28;20033;-77
2022/09/16 02:07:44;;;;;;;2.65;1.30;;;18.50;99.90;;;;;;5048905;28;20033;-77
2022/09/16 02:10:26;;;;;;;2.00;1.23;;;18.50;99.90;;;;;;5032069;28;20021;-76
2022/09/16 02:12:56;;;;;;;2.45;1.20;;;18.50;99.90;;;;;;5031836;28;20481;-77
2022/09/16 02:15:25;;;;;;;1.88;1.33;;;18.40;99.90;;;;;;5030971;28;20062;-77
2022/09/16 02:17:59;;;;;;;3.28;1.00;;;18.40;99.90;;;;;;5033071;28;20017;-77
2022/09/16 02:20:28;;;;;;;2.58;1.45;;;18.40;99.90;;;;;;5033174;28;20484;-77
2022/09/16 02:23:11;;;;;;;3.85;1.10;;;18.40;99.90;;;;;;5033136;28;20507;-77
2022/09/16 02:25:39;;;;;;;1.88;1.35;;;18.40;99.90;;;;;;5042731;28;20029;-77
2022/09/16 02:28:11;;;;;;;3.70;1.52;;;18.40;99.90;;;;;;5031828;28;20079;-77
2022/09/16 02:30:41;;;;;;;2.85;0.80;;;18.40;99.90;;;;;;5031075;28;20056;-77
2022/09/16 02:33:09;;;;;;;3.40;1.20;;;18.40;99.90;;;;;;5033176;28;20021;-77
2022/09/16 02:35:38;;;;;;;1.85;1.02;;;18.40;99.90;;;;;;5030326;28;20021;-76
2022/09/16 02:38:10;;;;;;;1.63;0.75;;;18.40;99.90;;;;;;5031352;28;20032;-77
2022/09/16 02:40:50;;;;;;;0.95;0.80;;;18.40;99.90;;;;;;5043342;28;20032;-77
2022/09/16 02:43:16;;;;;;;2.25;0.98;;;18.40;99.90;;;;;;5033165;28;20385;-77
2022/09/16 02:45:46;;;;;;;2.83;1.10;;;18.40;99.90;;;;;;5028861;28;20037;-77
2022/09/16 02:48:21;;;;;;;3.20;0.80;;;18.40;99.90;;;;;;5030366;28;20021;-77
2022/09/16 02:51:00;;;;;;;2.80;1.55;;;18.40;99.90;;;;;;5036517;28;20448;-77
2022/09/16 02:53:44;;;;;;;1.65;0.80;;;18.40;99.90;;;;;;5031428;28;20030;-77
2022/09/16 02:56:28;;;;;;;8.15;1.38;;;18.40;99.90;;;;;;5028958;28;20025;-76
2022/09/16 02:58:54;;;;;;;1.88;0.90;;;18.40;99.90;;;;;;5021871;28;20088;-77
2022/09/16 03:01:21;;;;;;;2.70;1.02;;;18.40;99.90;;;;;;5030542;28;20029;-77
2022/09/16 03:03:47;;;;;;;1.52;0.90;;;18.40;99.90;;;;;;5037585;28;20432;-77
2022/09/16 03:06:18;;;;;;;3.30;1.02;;;18.40;99.90;;;;;;5020824;28;20507;-77
2022/09/16 03:08:44;;;;;;;2.28;0.90;;;18.40;99.90;;;;;;5034807;28;20025;-77
2022/09/16 03:11:30;;;;;;;1.23;0.73;;;18.40;99.90;;;;;;5050544;28;20495;-77
2022/09/16 03:14:17;;;;;;;0.82;0.65;;;18.30;99.90;;;;;;5036093;28;20074;-77
2022/09/16 03:17:01;;;;;;;3.45;1.20;;;18.30;99.90;;;;;;5035647;28;20047;-77
2022/09/16 03:20:04;;;;;;;2.95;1.00;;;18.30;99.90;;;;;;5036359;28;20095;-77
2022/09/16 03:22:57;;;;;;;2.08;1.23;;;18.30;99.90;;;;;;5034385;28;20039;-76
2022/09/16 03:25:44;;;;;;;3.45;1.23;;;18.40;99.90;;;;;;5034575;28;20036;-77
2022/09/16 03:28:23;;;;;;;1.33;1.00;;;18.30;99.90;;;;;;5043130;28;20064;-77
2022/09/16 03:31:04;;;;;;;1.63;0.90;;;18.30;99.90;;;;;;5044625;28;20032;-77
2022/09/16 03:33:40;;;;;;;4.47;1.17;;;18.30;99.90;;;;;;5033425;28;20108;-76
2022/09/16 03:36:10;;;;;;;3.10;0.82;;;18.30;99.90;;;;;;5052434;28;20480;-77
2022/09/16 03:38:37;;;;;;;2.92;1.48;;;18.30;99.90;;;;;;5032849;28;20039;-77
2022/09/16 03:41:06;;;;;;;2.10;0.88;;;18.30;99.90;;;;;;5032719;28;20033;-77
2022/09/16 03:43:34;;;;;;;2.58;1.08;;;18.30;99.90;;;;;;5054541;28;20041;-76
2022/09/16 03:46:00;;;;;;;2.78;1.10;;;18.30;99.90;;;;;;5050918;28;20033;-76
2022/09/16 03:48:26;;;;;;;5.00;1.40;;;18.20;99.90;;;;;;5051922;28;20381;-76
2022/09/16 03:50:52;;;;;;;4.15;1.40;;;18.20;99.90;;;;;;5053346;28;20104;-77
2022/09/16 03:53:18;;;;;;;1.48;0.90;;;18.30;99.90;;;;;;5036331;28;20049;-78
2022/09/16 03:55:44;;;;;;;1.98;1.15;;;18.30;99.90;;;;;;5035225;28;20143;-77
2022/09/16 03:58:10;;;;;;;2.00;1.10;;;18.20;99.90;;;;;;5036471;28;20155;-77
2022/09/16 04:00:36;;;;;;;3.35;1.23;;;18.20;99.90;;;;;;5035593;28;20382;-77
2022/09/16 04:03:02;;;;;;;4.32;1.38;;;18.20;99.90;;;;;;5035278;28;20481;-76
2022/09/16 04:05:28;;;;;;;2.33;1.20;;;18.20;99.90;;;;;;5033540;28;20558;-76
2022/09/16 04:07:53;;;;;;;1.30;1.10;;;18.20;99.90;;;;;;5033157;28;20100;-76
2022/09/16 04:10:19;;;;;;;1.02;0.80;;;18.20;99.90;;;;;;5032205;28;20120;-76
2022/09/16 04:12:45;;;;;;;2.83;1.10;;;18.30;99.90;;;;;;5031937;28;20029;-76
2022/09/16 04:15:11;;;;;;;2.67;1.20;;;18.30;99.90;;;;;;5033949;28;20035;-77
2022/09/16 04:17:37;;;;;;;6.38;1.45;;;18.20;99.90;;;;;;5033930;28;20025;-77
2022/09/16 04:20:04;;;;;;;3.55;1.10;;;18.20;99.90;;;;;;5034500;28;20029;-76
2022/09/16 04:22:30;;;;;;;4.85;1.73;;;18.20;99.90;;;;;;5032307;28;20029;-77
2022/09/16 04:24:56;;;;;;;2.47;1.40;;;18.20;99.90;;;;;;5051219;28;20054;-77
2022/09/16 04:27:23;;;;;;;2.17;1.13;;;18.20;99.90;;;;;;5031023;28;20576;-77
2022/09/16 04:29:48;;;;;;;3.28;1.05;;;18.20;99.90;;;;;;5050946;28;20025;-76
2022/09/16 04:32:14;;;;;;;2.50;1.27;;;18.20;99.90;;;;;;5031758;28;20048;-76
2022/09/16 04:34:40;;;;;;;1.10;0.88;;;18.20;99.90;;;;;;5033135;28;20033;-77
2022/09/16 04:37:06;;;;;;;2.63;0.90;;;18.20;99.90;;;;;;5049307;28;20021;-76
2022/09/16 04:39:32;;;;;;;2.45;0.90;;;18.20;99.90;;;;;;5049605;28;20025;-76
2022/09/16 04:41:59;;;;;;;3.13;1.10;;;18.20;99.90;;;;;;5032279;28;20032;-76
2022/09/16 04:44:26;;;;;;;2.25;0.90;;;18.20;99.90;;;;;;5031354;28;20492;-76
2022/09/16 04:46:51;;;;;;;3.03;1.10;;;18.20;99.90;;;;;;5056185;22;20064;-86
2022/09/16 04:49:17;;;;;;;2.15;1.20;;;18.10;99.90;;;;;;5072274;28;20040;-86
2022/09/16 04:51:43;;;;;;;3.53;1.45;;;18.20;99.90;;;;;;5054207;28;20548;-86
2022/09/16 04:54:10;;;;;;;3.13;1.20;;;18.20;99.90;;;;;;5054827;28;20020;-86
2022/09/16 04:56:36;;;;;;;2.60;1.10;;;18.10;99.90;;;;;;5069156;28;20024;-86
2022/09/16 04:59:04;;;;;;;2.03;1.20;;;18.10;99.90;;;;;;5039875;28;20016;-87
2022/09/16 05:01:32;;;;;;;4.72;1.20;;;18.10;99.90;;;;;;5039007;28;20022;-86
2022/09/16 05:04:01;;;;;;;2.42;1.10;;;18.10;99.90;;;;;;5023364;28;20386;-87
2022/09/16 05:06:29;;;;;;;3.28;1.20;;;18.10;99.90;;;;;;5036973;28;20039;-86
2022/09/16 05:08:56;;;;;;;3.70;2.28;;;18.10;99.90;;;;;;5047173;28;20044;-86
2022/09/16 05:11:24;;;;;;;2.90;1.27;;;18.10;99.90;;;;;;5028930;28;20394;-86
2022/09/16 05:13:50;;;;;;;1.58;1.08;;;18.10;99.90;;;;;;5061501;28;20038;-86
2022/09/16 05:16:18;;;;;;;2.38;1.35;;;18.10;99.90;;;;;;5031817;28;20483;-86
2022/09/16 05:18:46;;;;;;;3.00;1.23;;;18.10;99.90;;;;;;5039042;28;20021;-86
2022/09/16 05:21:14;;;;;;;4.10;1.45;;;18.10;99.90;;;;;;5033309;28;20060;-86
2022/09/16 05:23:39;;;;;;;3.08;1.30;;;18.10;99.90;;;;;;5050719;28;20020;-86
2022/09/16 05:26:09;;;;;;;3.35;1.05;;;18.10;99.90;;;;;;5036044;28;20095;-86
2022/09/16 05:28:35;;;;;;;3.28;1.38;;;18.10;99.90;;;;;;5030892;28;20110;-85
2022/09/16 05:31:16;;;;;;;2.53;1.00;;;18.10;99.90;;;;;;5044500;28;20025;-86
2022/09/16 05:33:44;;;;;;;3.25;1.42;;;18.10;99.90;;;;;;5043933;28;20017;-86
2022/09/16 05:36:12;;;;;;;6.60;1.55;;;18.00;99.90;;;;;;5020360;28;20025;-86
2022/09/16 05:38:37;;;;;;;2.47;0.90;;;18.00;99.90;;;;;;5033488;28;20036;-85
2022/09/16 05:41:04;;;;;;;2.80;1.10;;;18.00;99.90;;;;;;5022800;28;20491;-86
2022/09/16 05:43:31;;;;;;;3.08;2.08;;;18.00;99.90;;;;;;5036739;28;20116;-87
2022/09/16 05:45:57;;;;;;;5.03;1.40;;;18.00;99.90;;;;;;5026354;28;20540;-86
2022/09/16 05:48:23;;;;;;;1.85;1.08;;;18.00;99.90;;;;;;5028999;28;20052;-86
2022/09/16 05:50:56;;;;;;;3.25;2.03;;;18.00;99.90;;;;;;5021529;28;20097;-86
2022/09/16 05:53:22;;;;;;;2.93;1.47;;;18.00;99.90;;;;;;5029749;28;20030;-86
2022/09/16 05:56:07;;;;;;;2.90;1.00;;;18.00;99.90;;;;;;5034665;28;20022;-85
2022/09/16 05:58:34;;;;;;;1.67;0.90;;;18.00;99.90;;;;;;5028806;28;20029;-86
2022/09/16 06:01:06;;;;;;;3.88;1.63;;;18.00;99.90;;;;;;5027142;28;20472;-85
2022/09/16 06:03:33;;;;;;;5.05;1.40;;;18.00;99.90;;;;;;5024397;28;20021;-87
2022/09/16 06:06:26;;;;;;;2.38;1.23;;;18.00;99.90;;;;;;5025834;28;20376;-86
2022/09/16 06:08:55;;;;;;;6.28;1.75;;;18.00;99.90;;;;;;5023920;28;20464;-85
2022/09/16 06:11:21;;;;;;;2.35;1.42;;;18.00;99.90;;;;;;5018425;28;20076;-86
2022/09/16 06:14:03;;;;;;;5.97;1.50;;;18.00;99.90;;;;;;5033448;28;20048;-86
2022/09/16 06:16:32;;;;;;;1.98;1.48;;;18.00;99.90;;;;;;5023705;28;20037;-86
2022/09/16 06:19:01;;;;;;;3.83;1.52;;;18.00;99.90;;;;;;5039030;28;20030;-87
2022/09/16 06:21:27;;;;;;;2.10;1.40;;;17.90;99.90;;;;;;5020790;28;20022;-86
2022/09/16 06:23:53;;;;;;;4.50;1.00;;;17.90;99.90;;;;;;5039527;28;20024;-87
2022/09/16 06:26:22;;;;;;;4.75;1.90;;;17.90;99.90;;;;;;5034726;28;20380;-85
2022/09/16 06:28:48;;;;;;;4.60;1.50;;;17.90;99.90;;;;;;5020224;28;20026;-86
2022/09/16 06:31:19;;;;;;;3.38;1.10;;;18.00;99.90;;;;;;5024073;28;20030;-86
2022/09/16 06:33:45;;;;;;;4.53;1.05;;;17.90;99.90;;;;;;5019600;28;20030;-86
2022/09/16 06:36:16;;;;;;;5.60;1.98;;;18.00;99.90;;;;;;5025803;28;20037;-85
2022/09/16 06:38:43;;;;;;;3.53;1.33;;;17.90;99.90;;;;;;5043866;28;20036;-86
2022/09/16 06:41:10;;;;;;;4.47;1.77;;;17.90;99.90;;;;;;5027605;28;20026;-86
2022/09/16 06:43:36;;;;;;;3.40;1.50;;;17.90;99.90;;;;;;5020648;28;20036;-86
2022/09/16 06:46:17;;;;;;;9.27;1.50;;;17.90;99.90;;;;;;5025555;28;20033;-86
2022/09/16 06:48:51;;;;;;;2.60;1.20;;;17.90;99.90;;;;;;5034738;28;20534;-86
2022/09/16 06:51:21;;;;;;;3.20;1.27;;;17.90;99.90;;;;;;5030324;28;20037;-86
2022/09/16 06:53:48;;;;;;;5.72;1.30;;;17.90;99.90;;;;;;5035146;28;20030;-85
2022/09/16 06:56:15;;;;;;;3.47;1.50;;;17.90;99.90;;;;;;5042086;28;20036;-85
2022/09/16 06:58:43;;;;;;;5.78;1.38;;;17.90;99.90;;;;;;5033448;28;20040;-85
2022/09/16 07:01:14;;;;;;;2.78;1.42;;;17.90;99.90;;;;;;5013122;28;20092;-86
2022/09/16 07:03:42;;;;;;;3.67;1.17;;;17.90;99.90;;;;;;5032464;28;20053;-87
2022/09/16 07:06:08;;;;;;;3.28;1.52;;;17.90;99.90;;;;;;5030963;28;20113;-86
2022/09/16 07:08:35;;;;;;;3.90;1.33;;;17.90;99.90;;;;;;5037591;28;20026;-87
2022/09/16 07:11:02;;;;;;;5.03;1.30;;;17.90;99.90;;;;;;5035263;28;20029;-86
2022/09/16 07:13:28;;;;;;;5.47;1.58;;;17.90;99.90;;;;;;5035802;28;20053;-87
2022/09/16 07:15:59;;;;;;;3.95;1.45;;;17.90;99.90;;;;;;5023748;28;20513;-87
2022/09/16 07:18:25;;;;;;;5.13;1.48;;;17.90;99.90;;;;;;5033416;28;20502;-86
2022/09/16 07:20:50;;;;;;;3.45;1.77;;;17.90;99.90;;;;;;5031595;28;20025;-87
2022/09/16 07:23:16;;;;;;;5.05;1.80;;;17.90;99.90;;;;;;5042310;28;20025;-86
2022/09/16 07:25:42;;;;;;;5.55;1.40;;;17.90;99.90;;;;;;5027238;28;20057;-86
2022/09/16 07:28:07;;;;;;;5.55;1.75;;;17.90;99.90;;;;;;5031544;28;20056;-86
2022/09/16 07:30:33;;;;;;;6.57;1.70;;;17.90;99.90;;;;;;5028821;28;20103;-85
2022/09/16 07:32:59;;;;;;;6.60;1.70;;;17.80;99.90;;;;;;5023779;28;20022;-85
2022/09/16 07:35:25;;;;;;;4.50;1.40;;;17.80;99.90;;;;;;5027476;28;20032;-85
2022/09/16 07:37:51;;;;;;;3.83;1.33;;;17.80;99.90;;;;;;5028888;28;20030;-85
2022/09/16 07:40:17;;;;;;;5.13;1.60;;;17.80;99.90;;;;;;5027642;28;20028;-87
2022/09/16 07:42:43;;;;;;;5.47;1.63;;;17.80;99.90;;;;;;5021372;28;20125;-86
2022/09/16 07:45:09;;;;;;;8.77;1.70;;;17.80;99.90;;;;;;5025601;28;20490;-85
2022/09/16 07:47:35;;;;;;;2.05;1.38;;;17.80;99.90;;;;;;5034482;28;20025;-86
2022/09/16 07:50:00;;;;;;;2.88;1.45;;;17.80;99.90;;;;;;5026784;28;20025;-85
2022/09/16 07:52:28;;;;;;;2.85;1.30;;;17.80;99.90;;;;;;5046133;28;20064;-86
2022/09/16 07:54:55;;;;;;;3.08;1.40;;;17.80;99.90;;;;;;5032722;28;20054;-85
2022/09/16 07:57:21;;;;;;;8.55;1.67;;;17.80;99.90;;;;;;5040308;28;20033;-86
2022/09/16 07:59:47;;;;;;;2.83;1.20;;;17.80;99.90;;;;;;5031083;28;20025;-86
2022/09/16 08:02:12;;;;;;;5.68;1.70;;;17.80;99.90;;;;;;5019966;28;20083;-86
2022/09/16 08:04:38;;;;;;;4.80;1.88;;;17.80;99.90;;;;;;5038691;28;20044;-86
2022/09/16 08:07:05;;;;;;;5.80;1.58;;;17.80;99.90;;;;;;5036116;28;20104;-85
2022/09/16 08:09:30;;;;;;;2.83;1.48;;;17.70;99.90;;;;;;5029817;28;20566;-85
2022/09/16 08:11:56;;;;;;;5.05;1.45;;;17.80;99.90;;;;;;5034660;28;20506;-86
2022/09/16 08:14:22;;;;;;;4.25;1.85;;;17.70;99.90;;;;;;5031747;28;20057;-85
2022/09/16 08:16:50;;;;;;;8.20;1.27;;;17.80;99.90;;;;;;5047330;28;20110;-85
2022/09/16 08:19:16;;;;;;;2.40;1.40;;;17.80;99.90;;;;;;5030695;28;20029;-85
2022/09/16 08:21:42;;;;;;;4.72;1.42;;;17.70;99.90;;;;;;5046634;28;20075;-86
2022/09/16 08:24:09;;;;;;;4.30;1.42;;;17.80;99.90;;;;;;5041487;28;20038;-85
2022/09/16 08:26:35;;;;;;;2.67;1.50;;;17.80;99.90;;;;;;5037905;28;20086;-85
2022/09/16 08:29:01;;;;;;;4.60;1.90;;;17.80;99.90;;;;;;5047049;28;20029;-85
2022/09/16 08:31:26;;;;;;;5.03;1.58;;;17.80;99.90;;;;;;5039869;28;20030;-86
2022/09/16 08:33:52;;;;;;;6.72;3.03;;;17.70;99.90;;;;;;5052126;28;20041;-86
2022/09/16 08:36:23;;;;;;;2.15;1.60;;;17.70;99.90;;;;;;5030348;28;20026;-86
2022/09/16 08:38:54;;;;;;;2.80;1.67;;;17.70;99.90;;;;;;5036526;28;20044;-86
2022/09/16 08:41:34;;;;;;;3.15;1.58;;;17.70;99.90;;;;;;5041861;28;20488;-86
2022/09/16 08:44:15;;;;;;;1.80;1.48;;;17.70;99.90;;;;;;5020011;28;20029;-86
2022/09/16 08:46:44;;;;;;;2.45;1.63;;;17.70;99.90;;;;;;5017850;28;20044;-85
2022/09/16 08:49:47;;;;;;;3.70;1.50;;;17.70;99.90;;;;;;5036455;28;20033;-87
2022/09/16 08:52:30;;;;;;;4.22;1.17;;;17.70;99.90;;;;;;5042243;28;20017;-86
2022/09/16 08:55:05;;;;;;;3.13;1.42;;;17.70;99.90;;;;;;5029991;28;20022;-84
2022/09/16 08:57:35;;;;;;;2.65;1.25;;;17.70;99.90;;;;;;5024632;28;20095;-84
2022/09/16 09:00:11;;;;;;;2.80;1.50;;;17.70;99.90;;;;;;5023800;28;20033;-85
2022/09/16 09:02:51;;;;;;;3.22;1.80;;;17.70;99.90;;;;;;5008192;28;20049;-86
2022/09/16 09:05:26;;;;;;;5.20;1.30;;;17.60;99.90;;;;;;5029457;28;20041;-85
2022/09/16 09:08:07;;;;;;;3.42;1.58;;;17.60;99.90;;;;;;5029940;28;20065;-85
2022/09/16 09:10:49;;;;;;;3.05;1.55;;;17.70;99.90;;;;;;5033482;28;20100;-85
2022/09/16 09:13:35;;;;;;;2.67;1.23;;;17.70;99.90;;;;;;5025673;28;20026;-86
2022/09/16 09:16:15;;;;;;;1.80;1.17;;;17.70;99.90;;;;;;5039370;28;20119;-85
2022/09/16 09:18:55;;;;;;;3.50;1.75;;;17.70;99.90;;;;;;5027289;28;20509;-86
2022/09/16 09:21:48;;;;;;;9.85;1.60;;;17.60;99.90;;;;;;5028613;28;20515;-85
2022/09/16 09:24:40;;;;;;;2.53;1.38;;;17.60;99.90;;;;;;5037995;28;20106;-84
2022/09/16 09:27:13;;;;;;;2.10;1.35;;;17.60;99.90;;;;;;5043869;28;20060;-86
2022/09/16 09:29:50;;;;;;;2.30;1.30;;;17.60;99.90;;;;;;5026955;28;20021;-85
2022/09/16 09:32:20;;;;;;;3.90;1.30;;;17.70;99.90;;;;;;5025885;28;20025;-86
2022/09/16 09:34:51;;;;;;;5.55;1.50;;;17.70;99.90;;;;;;5022002;28;20048;-86
2022/09/16 09:37:48;;;;;;;2.42;1.38;;;17.60;99.90;;;;;;5023714;28;20022;-86
2022/09/16 09:40:25;;;;;;;4.88;1.50;;;17.60;99.90;;;;;;5033392;28;20039;-87
2022/09/16 09:43:19;;;;;;;3.55;1.52;;;17.60;99.90;;;;;;5042175;28;20108;-86
2022/09/16 09:45:59;;;;;;;3.50;1.30;;;17.60;99.90;;;;;;5021808;28;20495;-86
2022/09/16 09:48:33;;;;;;;3.97;1.42;;;17.60;99.90;;;;;;5019139;28;20448;-86
2022/09/16 09:51:04;;;;;;;4.82;1.30;;;17.60;99.90;;;;;;5024773;28;20225;-87
2022/09/16 09:53:38;;;;;;;1.88;1.38;;;17.60;99.90;;;;;;5033378;28;20495;-87
2022/09/16 09:56:06;;;;;;;3.25;1.60;;;17.60;99.90;;;;;;5031924;28;20039;-86
2022/09/16 09:58:39;;;;;;;3.65;1.48;;;17.60;99.90;;;;;;5034870;28;20034;-86
2022/09/16 10:01:06;;;;;;;2.60;1.50;;;17.60;99.90;;;;;;5027005;28;20057;-86
2022/09/16 10:03:31;;;;;;;3.75;1.45;;;17.60;99.90;;;;;;5008118;28;20049;-86
2022/09/16 10:05:57;;;;;;;2.30;1.30;;;17.60;99.90;;;;;;5018849;28;20449;-86
2022/09/16 10:08:29;;;;;;;1.92;1.38;;;17.60;99.90;;;;;;5027471;28;20040;-86
2022/09/16 10:11:00;;;;;;;1.48;1.13;;;17.60;99.90;;;;;;5041267;28;20504;-86
2022/09/16 10:13:28;;;;;;;4.28;1.50;;;17.60;99.90;;;;;;5018208;28;20121;-86
2022/09/16 10:16:09;;;;;;;3.75;1.40;;;17.60;99.90;;;;;;5023253;28;20097;-86
2022/09/16 10:18:35;;;;;;;2.17;1.30;;;17.60;99.90;;;;;;5025075;28;20028;-86
2022/09/16 10:21:08;;;;;;;2.55;1.55;;;17.60;99.90;;;;;;5019726;28;20041;-86
2022/09/16 10:23:34;;;;;;;2.25;1.20;;;17.60;99.90;;;;;;5040353;28;20025;-85
2022/09/16 10:26:25;;;;;;;2.08;1.13;;;17.60;99.90;;;;;;5018079;28;20025;-86
2022/09/16 10:29:15;;;;;;;3.97;1.10;;;17.60;99.90;;;;;;5022820;28;21617;-86
2022/09/16 10:31:41;;;;;;;4.35;1.52;;;17.60;99.90;;;;;;5029295;28;20034;-87
2022/09/16 10:34:31;;;;;;;4.25;2.05;;;17.60;99.90;;;;;;5017803;28;20104;-86
2022/09/16 10:37:02;;;;;;;4.82;1.17;;;17.60;99.90;;;;;;5017179;28;20049;-85
2022/09/16 10:39:29;;;;;;;2.22;1.20;;;17.60;99.90;;;;;;5030208;28;20037;-85
2022/09/16 10:41:54;;;;;;;2.75;1.52;;;17.60;99.90;;;;;;5023935;28;20376;-85
2022/09/16 10:44:29;;;;;;;3.70;0.90;;;17.60;99.90;;;;;;5024274;28;20038;-85
2022/09/16 10:47:02;;;;;;;2.50;1.30;;;17.60;99.90;;;;;;5021030;28;20025;-85
2022/09/16 10:49:52;;;;;;;2.63;1.63;;;17.60;99.90;;;;;;5027215;28;20040;-85
2022/09/16 10:52:24;;;;;;;1.88;1.10;;;17.60;99.90;;;;;;5016992;28;20146;-87
2022/09/16 10:54:50;;;;;;;5.10;1.45;;;17.60;99.90;;;;;;5043974;28;20383;-85
2022/09/16 10:57:33;;;;;;;3.50;1.23;;;17.50;99.90;;;;;;5036396;28;20090;-85
2022/09/16 11:00:13;;;;;;;9.43;2.10;;;17.60;99.90;;;;;;5033393;28;20486;-85
2022/09/16 11:03:09;;;;;;;1.92;1.20;;;17.60;99.90;;;;;;5005041;28;20053;-85
2022/09/16 11:06:04;;;;;;;4.68;1.20;;;17.50;99.90;;;;;;5012972;28;20101;-85
2022/09/16 11:08:55;;;;;;;4.68;1.80;;;17.60;99.90;;;;;;5029371;28;20034;-86
2022/09/16 11:11:39;;;;;;;3.42;1.05;;;17.60;99.90;;;;;;5034071;28;20029;-85
2022/09/16 11:14:22;;;;;;;6.88;1.42;;;17.50;99.90;;;;;;5026650;28;20026;-85
2022/09/16 11:17:17;;;;;;;4.40;2.13;;;17.60;99.90;;;;;;5031609;28;20085;-85
2022/09/16 11:20:20;;;;;;;3.63;1.25;;;17.60;99.90;;;;;;5023145;28;20057;-85
2022/09/16 11:22:57;;;;;;;2.50;1.48;;;17.60;99.90;;;;;;5022953;28;20479;-84
2022/09/16 11:25:32;;;;;;;1.88;1.50;;;17.60;99.90;;;;;;5024323;28;20168;-85
2022/09/16 11:28:28;;;;;;;2.05;1.50;;;17.60;99.90;;;;;;5022510;28;20029;-85
2022/09/16 11:31:18;;;;;;;1.95;1.50;;;17.60;99.90;;;;;;5029377;28;20100;-84
2022/09/16 11:34:00;;;;;;;2.72;1.10;;;17.60;99.90;;;;;;5020248;28;20021;-84
2022/09/16 11:36:35;;;;;;;2.47;1.70;;;17.60;99.90;;;;;;5032567;28;20036;-85
2022/09/16 11:39:25;;;;;;;2.70;1.23;;;17.60;99.90;;;;;;5039532;28;20312;-85
2022/09/16 11:42:09;;;;;;;2.65;1.10;;;17.60;99.90;;;;;;5031385;28;20030;-85
2022/09/16 11:44:55;;;;;;;3.95;1.70;;;17.60;99.90;;;;;;5036608;28;20025;-85
2022/09/16 11:47:26;;;;;;;3.47;1.52;;;17.60;99.90;;;;;;5020018;28;20033;-84
2022/09/16 11:50:00;;;;;;;2.15;1.30;;;17.60;99.90;;;;;;5036511;28;20029;-85
2022/09/16 11:53:03;;;;;;;2.20;1.20;;;17.60;99.90;;;;;;5034090;28;20022;-86
2022/09/16 11:55:34;;;;;;;1.25;1.10;;;17.60;99.90;;;;;;5006350;28;20676;-84
2022/09/16 11:58:20;;;;;;;2.05;1.13;;;17.60;99.90;;;;;;5027921;28;20033;-85
2022/09/16 12:00:48;;;;;;;4.03;1.13;;;17.60;99.90;;;;;;5019458;28;20065;-85
2022/09/16 12:03:31;;;;;;;2.25;1.02;;;17.60;99.90;;;;;;5019753;28;20068;-85
2022/09/16 12:06:10;;;;;;;0.80;0.80;;;17.60;99.90;;;;;;5032975;28;20449;-86
2022/09/16 12:08:50;;;;;;;1.55;0.88;;;17.60;99.90;;;;;;5033776;28;20043;-85
2022/09/16 12:11:31;;;;;;;2.58;1.27;;;17.50;99.90;;;;;;5027890;28;20030;-85
2022/09/16 12:14:14;;;;;;;2.35;1.20;;;17.50;99.90;;;;;;5033091;28;20029;-85
2022/09/16 12:17:10;;;;;;;0.85;0.77;;;17.50;99.90;;;;;;5030570;28;20040;-85
2022/09/16 12:19:54;;;;;;;0.98;0.70;;;17.50;99.90;;;;;;5042756;28;20038;-85
2022/09/16 12:22:32;;;;;;;1.50;1.40;;;17.50;99.90;;;;;;5014430;28;20389;-84
2022/09/16 12:25:27;;;;;;;1.33;0.98;;;17.50;99.90;;;;;;5016900;28;20055;-84
2022/09/16 12:28:10;;;;;;;1.98;0.75;;;17.50;99.90;;;;;;5022953;28;20480;-84
2022/09/16 12:30:40;;;;;;;1.58;0.80;;;17.50;99.90;;;;;;5027506;28;20025;-84
2022/09/16 12:33:33;;;;;;;3.83;1.13;;;17.50;99.90;;;;;;5028673;28;20063;-84
2022/09/16 12:36:03;;;;;;;1.23;0.90;;;17.50;99.90;;;;;;5028009;28;20025;-85
2022/09/16 12:38:29;;;;;;;1.27;0.90;;;17.50;99.90;;;;;;5026380;28;20388;-85
2022/09/16 12:41:16;;;;;;;0.80;0.75;;;17.50;99.90;;;;;;5025219;28;20026;-84
2022/09/16 12:44:07;;;;;;;0.73;0.73;;;17.50;99.90;;;;;;5039180;28;20895;-86
2022/09/16 12:46:51;;;;;;;1.70;0.80;;;17.50;99.90;;;;;;5026123;28;20032;-84
2022/09/16 12:49:26;;;;;;;2.20;0.60;;;17.50;99.90;;;;;;5028435;28;20031;-85
2022/09/16 12:52:12;;;;;;;1.17;0.82;;;17.40;99.90;;;;;;5029582;28;20036;-86
2022/09/16 12:54:56;;;;;;;2.78;0.95;;;17.40;99.90;;;;;;5027698;28;20024;-86
2022/09/16 12:57:41;;;;;;;7.13;0.95;;;17.40;99.90;;;;;;5025704;28;20112;-86
2022/09/16 13:00:12;;;;;;;1.05;0.73;;;17.40;99.90;;;;;;5026178;28;20416;-85
2022/09/16 13:02:58;;;;;;;3.03;0.90;;;17.40;99.90;;;;;;5005373;28;20041;-86
2022/09/16 13:05:28;;;;;;;2.20;0.90;;;17.40;99.90;;;;;;5027810;28;20060;-87
2022/09/16 13:07:56;;;;;;;3.10;0.80;;;17.30;99.90;;;;;;5029316;28;20026;-86
2022/09/16 13:10:36;;;;;;;1.13;0.70;;;17.40;99.90;;;;;;5026028;28;20025;-85
2022/09/16 13:13:04;;;;;;;1.30;0.82;;;17.40;99.90;;;;;;5027108;28;20022;-87
2022/09/16 13:15:37;;;;;;;2.03;1.08;;;17.30;99.90;;;;;;5028124;28;20029;-87
2022/09/16 13:18:18;;;;;;;2.67;0.70;;;17.30;99.90;;;;;;5029593;28;20034;-87
2022/09/16 13:21:01;;;;;;;1.67;1.13;;;17.40;99.90;;;;;;5031039;28;20280;-87
2022/09/16 13:23:34;;;;;;;1.90;0.73;;;17.40;99.90;;;;;;5027241;28;20032;-87